sensor_id;sensor_type;location;lat;lon;timestamp;temperature;humidity
25024;DHT22;13033;50.936;5.334;2023-01-26T00:01:46;0.20;99.90
25024;DHT22;13033;50.936;5.334;2023-01-26T00:04:12;0.30;99.90
25024;DHT22;13033;50.936;5.334;2023-01-26T00:06:37;0.30;99.90
25024;DHT22;13033;50.936;5.334;2023-01-26T00:09:04;0.30;99.90
25024;DHT22;13033;50.936;5.334;2023-01-26T00:11:30;0.40;99.90
25024;DHT22;13033;50.936;5.334;2023-01-26T00:13:57;0.60;99.90
25024;DHT22;13033;50.936;5.334;2023-01-26T00:16:23;0.50;99.90
25024;DHT22;13033;50.936;5.334;2023-01-26T00:18:49;0.60;99.90
25024;DHT22;13033;50.936;5.334;2023-01-26T00:21:20;0.70;99.90
25024;DHT22;13033;50.936;5.334;2023-01-26T00:23:47;0.60;99.90
25024;DHT22;13033;50.936;5.334;2023-01-26T00:26:15;0.60;99.90
25024;DHT22;13033;50.936;5.334;2023-01-26T00:28:41;0.60;99.90
25024;DHT22;13033;50.936;5.334;2023-01-26T00:31:11;0.50;99.90
25024;DHT22;13033;50.936;5.334;2023-01-26T00:33:37;0.50;99.90
25024;DHT22;13033;50.936;5.334;2023-01-26T00:36:05;0.50;99.90
25024;DHT22;13033;50.936;5.334;2023-01-26T00:38:30;0.50;99.90
25024;DHT22;13033;50.936;5.334;2023-01-26T00:40:56;0.50;99.90
25024;DHT22;13033;50.936;5.334;2023-01-26T00:43:22;0.60;99.90
25024;DHT22;13033;50.936;5.334;2023-01-26T00:45:47;0.80;99.90
25024;DHT22;13033;50.936;5.334;2023-01-26T00:48:13;0.70;99.90
25024;DHT22;13033;50.936;5.334;2023-01-26T00:50:39;0.60;99.90
25024;DHT22;13033;50.936;5.334;2023-01-26T00:53:04;0.40;99.90
25024;DHT22;13033;50.936;5.334;2023-01-26T00:55:30;0.60;99.90
25024;DHT22;13033;50.936;5.334;2023-01-26T00:58:00;0.50;99.90
25024;DHT22;13033;50.936;5.334;2023-01-26T01:00:26;0.40;99.90
25024;DHT22;13033;50.936;5.334;2023-01-26T01:02:53;0.50;99.90
25024;DHT22;13033;50.936;5.334;2023-01-26T01:05:24;0.30;99.90
25024;DHT22;13033;50.936;5.334;2023-01-26T01:07:50;0.30;99.90
25024;DHT22;13033;50.936;5.334;2023-01-26T01:10:16;0.30;99.90
25024;DHT22;13033;50.936;5.334;2023-01-26T01:12:42;0.20;99.90
25024;DHT22;13033;50.936;5.334;2023-01-26T01:15:08;0.30;99.90
25024;DHT22;13033;50.936;5.334;2023-01-26T01:17:34;0.30;99.90
25024;DHT22;13033;50.936;5.334;2023-01-26T01:20:04;0.60;99.90
25024;DHT22;13033;50.936;5.334;2023-01-26T01:22:32;0.80;99.90
25024;DHT22;13033;50.936;5.334;2023-01-26T01:24:57;0.70;99.90
25024;DHT22;13033;50.936;5.334;2023-01-26T01:27:23;0.60;99.90
25024;DHT22;13033;50.936;5.334;2023-01-26T01:29:49;0.70;99.90
25024;DHT22;13033;50.936;5.334;2023-01-26T01:32:16;0.70;99.90
25024;DHT22;13033;50.936;5.334;2023-01-26T01:34:41;0.70;99.90
25024;DHT22;13033;50.936;5.334;2023-01-26T01:37:07;0.70;99.90
25024;DHT22;13033;50.936;5.334;2023-01-26T01:39:32;0.70;99.90
25024;DHT22;13033;50.936;5.334;2023-01-26T01:41:58;0.60;99.90
25024;DHT22;13033;50.936;5.334;2023-01-26T01:44:25;0.80;99.90
25024;DHT22;13033;50.936;5.334;2023-01-26T01:47:00;0.70;99.90
25024;DHT22;13033;50.936;5.334;2023-01-26T01:52:03;0.50;99.90
25024;DHT22;13033;50.936;5.334;2023-01-26T01:54:40;0.50;99.90
25024;DHT22;13033;50.936;5.334;2023-01-26T01:57:10;0.60;99.90
25024;DHT22;13033;50.936;5.334;2023-01-26T01:59:48;0.50;99.90
25024;DHT22;13033;50.936;5.334;2023-01-26T02:02:16;0.50;99.90
25024;DHT22;13033;50.936;5.334;2023-01-26T02:04:42;0.60;99.90
25024;DHT22;13033;50.936;5.334;2023-01-26T02:07:09;0.70;99.90
25024;DHT22;13033;50.936;5.334;2023-01-26T02:09:37;0.80;99.90
25024;DHT22;13033;50.936;5.334;2023-01-26T02:12:26;0.70;99.90
25024;DHT22;13033;50.936;5.334;2023-01-26T02:14:54;0.60;99.90
25024;DHT22;13033;50.936;5.334;2023-01-26T02:17:21;0.60;99.90
25024;DHT22;13033;50.936;5.334;2023-01-26T02:27:53;0.40;99.90
25024;DHT22;13033;50.936;5.334;2023-01-26T02:30:18;0.40;99.90
25024;DHT22;13033;50.936;5.334;2023-01-26T02:32:45;0.60;99.90
25024;DHT22;13033;50.936;5.334;2023-01-26T02:35:11;0.60;99.90
25024;DHT22;13033;50.936;5.334;2023-01-26T02:37:37;0.70;99.90
25024;DHT22;13033;50.936;5.334;2023-01-26T02:40:32;0.60;99.90
25024;DHT22;13033;50.936;5.334;2023-01-26T02:43:00;0.70;99.90
25024;DHT22;13033;50.936;5.334;2023-01-26T02:45:26;0.70;99.90
25024;DHT22;13033;50.936;5.334;2023-01-26T02:47:53;0.70;99.90
25024;DHT22;13033;50.936;5.334;2023-01-26T02:50:19;0.80;99.90
25024;DHT22;13033;50.936;5.334;2023-01-26T02:52:45;1.00;99.90
25024;DHT22;13033;50.936;5.334;2023-01-26T02:55:10;0.90;99.90
25024;DHT22;13033;50.936;5.334;2023-01-26T02:57:58;0.90;99.90
25024;DHT22;13033;50.936;5.334;2023-01-26T03:00:33;0.90;99.90
25024;DHT22;13033;50.936;5.334;2023-01-26T03:03:07;0.90;99.90
25024;DHT22;13033;50.936;5.334;2023-01-26T03:05:34;1.00;99.90
25024;DHT22;13033;50.936;5.334;2023-01-26T03:08:00;1.00;99.90
25024;DHT22;13033;50.936;5.334;2023-01-26T03:10:26;0.90;99.90
25024;DHT22;13033;50.936;5.334;2023-01-26T03:12:51;0.90;99.90
25024;DHT22;13033;50.936;5.334;2023-01-26T03:15:18;1.10;99.90
25024;DHT22;13033;50.936;5.334;2023-01-26T03:18:07;1.30;99.90
25024;DHT22;13033;50.936;5.334;2023-01-26T03:21:00;1.10;99.90
25024;DHT22;13033;50.936;5.334;2023-01-26T03:23:45;1.20;99.90
25024;DHT22;13033;50.936;5.334;2023-01-26T03:26:29;1.20;99.90
25024;DHT22;13033;50.936;5.334;2023-01-26T03:29:13;1.20;99.90
25024;DHT22;13033;50.936;5.334;2023-01-26T03:31:39;1.20;99.90
25024;DHT22;13033;50.936;5.334;2023-01-26T03:34:05;1.10;99.90
25024;DHT22;13033;50.936;5.334;2023-01-26T03:36:30;1.20;99.90
25024;DHT22;13033;50.936;5.334;2023-01-26T03:38:56;1.10;99.90
25024;DHT22;13033;50.936;5.334;2023-01-26T03:41:22;0.90;99.90
25024;DHT22;13033;50.936;5.334;2023-01-26T03:44:06;1.10;99.90
25024;DHT22;13033;50.936;5.334;2023-01-26T03:46:50;1.30;99.90
25024;DHT22;13033;50.936;5.334;2023-01-26T03:49:34;1.30;99.90
25024;DHT22;13033;50.936;5.334;2023-01-26T03:52:19;1.40;99.90
25024;DHT22;13033;50.936;5.334;2023-01-26T03:55:03;1.40;99.90
25024;DHT22;13033;50.936;5.334;2023-01-26T03:57:47;1.50;99.90
25024;DHT22;13033;50.936;5.334;2023-01-26T04:00:13;1.40;99.90
25024;DHT22;13033;50.936;5.334;2023-01-26T04:02:40;1.40;99.90
25024;DHT22;13033;50.936;5.334;2023-01-26T04:05:24;1.40;99.90
25024;DHT22;13033;50.936;5.334;2023-01-26T04:08:08;1.30;99.90
25024;DHT22;13033;50.936;5.334;2023-01-26T04:10:53;1.20;99.90
25024;DHT22;13033;50.936;5.334;2023-01-26T04:13:21;1.20;99.90
25024;DHT22;13033;50.936;5.334;2023-01-26T04:16:06;1.10;99.90
25024;DHT22;13033;50.936;5.334;2023-01-26T04:18:51;1.20;99.90
25024;DHT22;13033;50.936;5.334;2023-01-26T04:21:35;1.50;99.90
25024;DHT22;13033;50.936;5.334;2023-01-26T04:24:03;1.60;99.90
25024;DHT22;13033;50.936;5.334;2023-01-26T04:26:40;1.40;99.90
25024;DHT22;13033;50.936;5.334;2023-01-26T04:29:08;1.30;99.90
25024;DHT22;13033;50.936;5.334;2023-01-26T04:31:35;1.50;99.90
25024;DHT22;13033;50.936;5.334;2023-01-26T04:34:02;1.50;99.90
25024;DHT22;13033;50.936;5.334;2023-01-26T04:36:28;1.50;99.90
25024;DHT22;13033;50.936;5.334;2023-01-26T04:38:54;1.70;99.90
25024;DHT22;13033;50.936;5.334;2023-01-26T04:41:20;1.50;99.90
25024;DHT22;13033;50.936;5.334;2023-01-26T04:43:46;1.30;99.90
25024;DHT22;13033;50.936;5.334;2023-01-26T04:46:12;1.40;99.90
25024;DHT22;13033;50.936;5.334;2023-01-26T04:48:38;1.30;99.90
25024;DHT22;13033;50.936;5.334;2023-01-26T04:51:16;1.50;99.90
25024;DHT22;13033;50.936;5.334;2023-01-26T04:53:42;1.30;99.90
25024;DHT22;13033;50.936;5.334;2023-01-26T04:59:10;1.40;99.90
25024;DHT22;13033;50.936;5.334;2023-01-26T05:01:36;1.40;99.90
25024;DHT22;13033;50.936;5.334;2023-01-26T05:04:03;1.50;99.90
25024;DHT22;13033;50.936;5.334;2023-01-26T05:06:29;1.50;99.90
25024;DHT22;13033;50.936;5.334;2023-01-26T05:08:56;1.60;99.90
25024;DHT22;13033;50.936;5.334;2023-01-26T05:11:21;1.80;99.90
25024;DHT22;13033;50.936;5.334;2023-01-26T05:13:47;1.90;99.90
25024;DHT22;13033;50.936;5.334;2023-01-26T05:16:13;1.80;99.90
25024;DHT22;13033;50.936;5.334;2023-01-26T05:18:40;1.80;99.90
25024;DHT22;13033;50.936;5.334;2023-01-26T05:21:06;1.70;99.90
25024;DHT22;13033;50.936;5.334;2023-01-26T05:23:32;1.80;99.90
25024;DHT22;13033;50.936;5.334;2023-01-26T05:25:58;1.70;99.90
25024;DHT22;13033;50.936;5.334;2023-01-26T05:28:24;1.70;99.90
25024;DHT22;13033;50.936;5.334;2023-01-26T05:30:49;1.50;99.90
25024;DHT22;13033;50.936;5.334;2023-01-26T05:33:15;1.40;99.90
25024;DHT22;13033;50.936;5.334;2023-01-26T05:35:41;1.50;99.90
25024;DHT22;13033;50.936;5.334;2023-01-26T05:38:07;1.60;99.90
25024;DHT22;13033;50.936;5.334;2023-01-26T05:40:33;1.70;99.90
25024;DHT22;13033;50.936;5.334;2023-01-26T05:42:59;1.70;99.90
25024;DHT22;13033;50.936;5.334;2023-01-26T05:45:25;1.60;99.90
25024;DHT22;13033;50.936;5.334;2023-01-26T05:47:50;1.60;99.90
25024;DHT22;13033;50.936;5.334;2023-01-26T05:50:16;1.50;99.90
25024;DHT22;13033;50.936;5.334;2023-01-26T05:52:43;1.60;99.90
25024;DHT22;13033;50.936;5.334;2023-01-26T05:55:11;1.40;99.90
25024;DHT22;13033;50.936;5.334;2023-01-26T05:57:37;1.50;99.90
25024;DHT22;13033;50.936;5.334;2023-01-26T06:00:07;1.50;99.90
25024;DHT22;13033;50.936;5.334;2023-01-26T06:02:33;1.50;99.90
25024;DHT22;13033;50.936;5.334;2023-01-26T06:04:59;1.30;99.90
25024;DHT22;13033;50.936;5.334;2023-01-26T06:07:24;1.50;99.90
25024;DHT22;13033;50.936;5.334;2023-01-26T06:09:51;1.50;99.90
25024;DHT22;13033;50.936;5.334;2023-01-26T06:12:19;1.60;99.90
25024;DHT22;13033;50.936;5.334;2023-01-26T06:14:45;1.40;99.90
25024;DHT22;13033;50.936;5.334;2023-01-26T06:17:12;1.50;99.90
25024;DHT22;13033;50.936;5.334;2023-01-26T06:19:38;1.50;99.90
25024;DHT22;13033;50.936;5.334;2023-01-26T06:22:11;1.90;99.90
25024;DHT22;13033;50.936;5.334;2023-01-26T06:24:38;1.90;99.90
25024;DHT22;13033;50.936;5.334;2023-01-26T06:27:06;1.90;99.90
25024;DHT22;13033;50.936;5.334;2023-01-26T06:29:33;2.30;99.90
25024;DHT22;13033;50.936;5.334;2023-01-26T06:31:59;2.30;99.90
25024;DHT22;13033;50.936;5.334;2023-01-26T06:34:25;2.20;99.90
25024;DHT22;13033;50.936;5.334;2023-01-26T06:36:51;2.00;99.90
25024;DHT22;13033;50.936;5.334;2023-01-26T06:39:17;2.30;99.90
25024;DHT22;13033;50.936;5.334;2023-01-26T06:41:42;2.50;99.90
25024;DHT22;13033;50.936;5.334;2023-01-26T06:44:09;2.50;99.90
25024;DHT22;13033;50.936;5.334;2023-01-26T06:46:35;2.40;99.90
25024;DHT22;13033;50.936;5.334;2023-01-26T06:49:01;2.30;99.90
25024;DHT22;13033;50.936;5.334;2023-01-26T06:54:02;2.00;99.90
25024;DHT22;13033;50.936;5.334;2023-01-26T06:56:27;1.90;99.90
25024;DHT22;13033;50.936;5.334;2023-01-26T06:58:53;2.10;99.90
25024;DHT22;13033;50.936;5.334;2023-01-26T07:01:24;2.30;99.90
25024;DHT22;13033;50.936;5.334;2023-01-26T07:03:52;2.30;99.90
25024;DHT22;13033;50.936;5.334;2023-01-26T07:06:18;2.50;99.90
25024;DHT22;13033;50.936;5.334;2023-01-26T07:08:44;2.60;99.90
25024;DHT22;13033;50.936;5.334;2023-01-26T07:11:10;2.60;99.90
25024;DHT22;13033;50.936;5.334;2023-01-26T07:13:37;2.30;99.90
25024;DHT22;13033;50.936;5.334;2023-01-26T07:16:08;2.20;99.90
25024;DHT22;13033;50.936;5.334;2023-01-26T07:18:34;2.20;99.90
25024;DHT22;13033;50.936;5.334;2023-01-26T07:21:06;2.30;99.90
25024;DHT22;13033;50.936;5.334;2023-01-26T07:23:32;2.00;99.90
25024;DHT22;13033;50.936;5.334;2023-01-26T07:25:58;1.80;99.90
25024;DHT22;13033;50.936;5.334;2023-01-26T07:28:24;1.80;99.90
25024;DHT22;13033;50.936;5.334;2023-01-26T07:30:51;1.90;99.90
25024;DHT22;13033;50.936;5.334;2023-01-26T07:33:17;2.10;99.90
25024;DHT22;13033;50.936;5.334;2023-01-26T07:35:43;2.10;99.90
25024;DHT22;13033;50.936;5.334;2023-01-26T07:38:08;2.20;99.90
25024;DHT22;13033;50.936;5.334;2023-01-26T07:40:34;2.40;99.90
25024;DHT22;13033;50.936;5.334;2023-01-26T07:43:00;2.60;99.90
25024;DHT22;13033;50.936;5.334;2023-01-26T07:45:26;2.70;99.90
25024;DHT22;13033;50.936;5.334;2023-01-26T07:47:56;2.70;99.90
25024;DHT22;13033;50.936;5.334;2023-01-26T07:50:22;2.60;99.90
25024;DHT22;13033;50.936;5.334;2023-01-26T07:52:50;2.50;99.90
25024;DHT22;13033;50.936;5.334;2023-01-26T07:55:17;2.40;99.90
25024;DHT22;13033;50.936;5.334;2023-01-26T07:57:47;2.40;99.90
25024;DHT22;13033;50.936;5.334;2023-01-26T08:00:14;2.30;99.90
25024;DHT22;13033;50.936;5.334;2023-01-26T08:02:40;2.20;99.90
25024;DHT22;13033;50.936;5.334;2023-01-26T08:05:06;2.40;99.90
25024;DHT22;13033;50.936;5.334;2023-01-26T08:07:31;2.30;99.90
25024;DHT22;13033;50.936;5.334;2023-01-26T08:09:57;2.40;99.90
25024;DHT22;13033;50.936;5.334;2023-01-26T08:12:24;2.60;99.90
25024;DHT22;13033;50.936;5.334;2023-01-26T08:14:49;2.70;99.90
25024;DHT22;13033;50.936;5.334;2023-01-26T08:17:15;2.60;99.90
25024;DHT22;13033;50.936;5.334;2023-01-26T08:19:42;2.80;99.90
25024;DHT22;13033;50.936;5.334;2023-01-26T08:22:08;2.60;99.90
25024;DHT22;13033;50.936;5.334;2023-01-26T08:24:33;2.70;99.90
25024;DHT22;13033;50.936;5.334;2023-01-26T08:26:59;2.80;99.90
25024;DHT22;13033;50.936;5.334;2023-01-26T08:29:25;2.70;99.90
25024;DHT22;13033;50.936;5.334;2023-01-26T08:31:50;2.80;99.90
25024;DHT22;13033;50.936;5.334;2023-01-26T08:34:16;2.90;99.90
25024;DHT22;13033;50.936;5.334;2023-01-26T08:36:42;2.60;99.90
25024;DHT22;13033;50.936;5.334;2023-01-26T08:39:08;2.50;99.90
25024;DHT22;13033;50.936;5.334;2023-01-26T08:41:34;2.50;99.90
25024;DHT22;13033;50.936;5.334;2023-01-26T08:43:59;2.50;99.90
25024;DHT22;13033;50.936;5.334;2023-01-26T08:46:25;2.60;99.90
25024;DHT22;13033;50.936;5.334;2023-01-26T08:48:51;2.60;99.90
25024;DHT22;13033;50.936;5.334;2023-01-26T08:51:17;2.60;99.90
25024;DHT22;13033;50.936;5.334;2023-01-26T08:53:43;2.50;99.90
25024;DHT22;13033;50.936;5.334;2023-01-26T08:56:10;2.80;99.90
25024;DHT22;13033;50.936;5.334;2023-01-26T08:58:37;3.10;99.90
25024;DHT22;13033;50.936;5.334;2023-01-26T09:01:09;3.20;99.90
25024;DHT22;13033;50.936;5.334;2023-01-26T09:03:35;3.10;99.90
25024;DHT22;13033;50.936;5.334;2023-01-26T09:06:03;3.00;99.90
25024;DHT22;13033;50.936;5.334;2023-01-26T09:08:29;2.90;99.90
25024;DHT22;13033;50.936;5.334;2023-01-26T09:10:55;2.80;99.90
25024;DHT22;13033;50.936;5.334;2023-01-26T09:13:21;2.90;99.90
25024;DHT22;13033;50.936;5.334;2023-01-26T09:15:47;2.90;99.90
25024;DHT22;13033;50.936;5.334;2023-01-26T09:18:13;2.80;99.90
25024;DHT22;13033;50.936;5.334;2023-01-26T09:20:39;3.00;99.90
25024;DHT22;13033;50.936;5.334;2023-01-26T09:23:04;3.00;99.90
25024;DHT22;13033;50.936;5.334;2023-01-26T09:25:30;2.80;99.90
25024;DHT22;13033;50.936;5.334;2023-01-26T09:27:56;2.70;99.90
25024;DHT22;13033;50.936;5.334;2023-01-26T09:30:22;2.80;99.90
25024;DHT22;13033;50.936;5.334;2023-01-26T09:32:49;2.70;99.90
25024;DHT22;13033;50.936;5.334;2023-01-26T09:35:16;2.70;99.90
25024;DHT22;13033;50.936;5.334;2023-01-26T09:37:44;3.10;99.90
25024;DHT22;13033;50.936;5.334;2023-01-26T09:40:36;3.40;99.90
25024;DHT22;13033;50.936;5.334;2023-01-26T09:48:48;3.70;99.90
25024;DHT22;13033;50.936;5.334;2023-01-26T09:51:41;3.50;99.90
25024;DHT22;13033;50.936;5.334;2023-01-26T09:56:49;3.40;99.90
25024;DHT22;13033;50.936;5.334;2023-01-26T09:59:29;3.30;99.90
25024;DHT22;13033;50.936;5.334;2023-01-26T10:04:35;3.40;99.90
25024;DHT22;13033;50.936;5.334;2023-01-26T10:07:10;3.40;99.90
25024;DHT22;13033;50.936;5.334;2023-01-26T10:09:37;3.20;99.90
25024;DHT22;13033;50.936;5.334;2023-01-26T10:14:49;3.40;99.90
25024;DHT22;13033;50.936;5.334;2023-01-26T10:17:28;3.20;99.90
25024;DHT22;13033;50.936;5.334;2023-01-26T10:20:06;3.00;99.90
25024;DHT22;13033;50.936;5.334;2023-01-26T10:22:43;3.20;99.90
25024;DHT22;13033;50.936;5.334;2023-01-26T10:25:19;3.20;99.90
25024;DHT22;13033;50.936;5.334;2023-01-26T10:27:45;3.50;99.90
25024;DHT22;13033;50.936;5.334;2023-01-26T10:30:13;3.70;99.90
25024;DHT22;13033;50.936;5.334;2023-01-26T10:32:41;4.00;99.90
25024;DHT22;13033;50.936;5.334;2023-01-26T10:35:18;4.20;99.90
25024;DHT22;13033;50.936;5.334;2023-01-26T10:37:44;3.70;99.90
25024;DHT22;13033;50.936;5.334;2023-01-26T10:40:11;3.60;99.90
25024;DHT22;13033;50.936;5.334;2023-01-26T10:42:38;3.50;99.90
25024;DHT22;13033;50.936;5.334;2023-01-26T10:45:29;3.80;99.90
25024;DHT22;13033;50.936;5.334;2023-01-26T10:48:22;3.80;99.90
25024;DHT22;13033;50.936;5.334;2023-01-26T10:50:49;3.90;99.90
25024;DHT22;13033;50.936;5.334;2023-01-26T10:53:27;4.20;99.90
25024;DHT22;13033;50.936;5.334;2023-01-26T10:56:11;4.20;99.90
25024;DHT22;13033;50.936;5.334;2023-01-26T10:58:46;4.00;99.90
25024;DHT22;13033;50.936;5.334;2023-01-26T11:01:13;3.70;99.90
25024;DHT22;13033;50.936;5.334;2023-01-26T11:03:41;3.50;99.90
25024;DHT22;13033;50.936;5.334;2023-01-26T11:06:14;3.30;99.90
25024;DHT22;13033;50.936;5.334;2023-01-26T11:08:40;3.10;99.90
25024;DHT22;13033;50.936;5.334;2023-01-26T11:11:07;3.20;99.90
25024;DHT22;13033;50.936;5.334;2023-01-26T11:13:46;3.30;99.90
25024;DHT22;13033;50.936;5.334;2023-01-26T11:16:23;3.50;99.90
25024;DHT22;13033;50.936;5.334;2023-01-26T11:19:15;3.60;99.90
25024;DHT22;13033;50.936;5.334;2023-01-26T11:21:54;3.50;99.90
25024;DHT22;13033;50.936;5.334;2023-01-26T11:32:57;3.50;99.90
25024;DHT22;13033;50.936;5.334;2023-01-26T11:35:38;3.90;99.90
25024;DHT22;13033;50.936;5.334;2023-01-26T11:38:31;4.00;99.90
25024;DHT22;13033;50.936;5.334;2023-01-26T11:44:14;3.90;99.90
25024;DHT22;13033;50.936;5.334;2023-01-26T11:49:47;4.00;99.90
25024;DHT22;13033;50.936;5.334;2023-01-26T11:52:37;4.10;99.90
25024;DHT22;13033;50.936;5.334;2023-01-26T11:55:17;4.10;99.90
25024;DHT22;13033;50.936;5.334;2023-01-26T11:58:07;4.30;99.90
25024;DHT22;13033;50.936;5.334;2023-01-26T12:00:40;4.50;99.90
25024;DHT22;13033;50.936;5.334;2023-01-26T12:06:24;4.30;99.90
25024;DHT22;13033;50.936;5.334;2023-01-26T12:08:53;4.20;99.90
25024;DHT22;13033;50.936;5.334;2023-01-26T12:11:29;4.10;99.90
25024;DHT22;13033;50.936;5.334;2023-01-26T12:21:54;4.10;99.90
25024;DHT22;13033;50.936;5.334;2023-01-26T12:24:44;4.10;99.90
25024;DHT22;13033;50.936;5.334;2023-01-26T12:27:40;3.90;99.90
25024;DHT22;13033;50.936;5.334;2023-01-26T12:30:23;4.00;99.90
25024;DHT22;13033;50.936;5.334;2023-01-26T12:32:50;3.90;99.90
25024;DHT22;13033;50.936;5.334;2023-01-26T12:35:43;4.00;99.90
25024;DHT22;13033;50.936;5.334;2023-01-26T12:38:17;4.00;99.90
25024;DHT22;13033;50.936;5.334;2023-01-26T12:46:47;4.00;99.90
25024;DHT22;13033;50.936;5.334;2023-01-26T12:49:45;4.00;99.90
25024;DHT22;13033;50.936;5.334;2023-01-26T12:52:26;4.30;99.90
25024;DHT22;13033;50.936;5.334;2023-01-26T12:57:33;4.20;99.90
25024;DHT22;13033;50.936;5.334;2023-01-26T13:00:06;4.10;99.90
25024;DHT22;13033;50.936;5.334;2023-01-26T13:02:44;4.00;99.90
25024;DHT22;13033;50.936;5.334;2023-01-26T13:05:26;4.00;99.90
25024;DHT22;13033;50.936;5.334;2023-01-26T13:07:52;4.00;99.90
25024;DHT22;13033;50.936;5.334;2023-01-26T13:10:28;3.90;99.90
25024;DHT22;13033;50.936;5.334;2023-01-26T13:15:38;4.30;99.90
25024;DHT22;13033;50.936;5.334;2023-01-26T13:18:04;4.30;99.90
25024;DHT22;13033;50.936;5.334;2023-01-26T13:20:40;4.20;99.90
25024;DHT22;13033;50.936;5.334;2023-01-26T13:23:35;4.10;99.90
25024;DHT22;13033;50.936;5.334;2023-01-26T13:26:14;4.10;99.90
25024;DHT22;13033;50.936;5.334;2023-01-26T13:28:40;4.00;99.90
25024;DHT22;13033;50.936;5.334;2023-01-26T13:31:08;4.10;99.90
25024;DHT22;13033;50.936;5.334;2023-01-26T13:33:33;4.10;99.90
25024;DHT22;13033;50.936;5.334;2023-01-26T13:36:02;4.20;99.90
25024;DHT22;13033;50.936;5.334;2023-01-26T13:38:38;4.50;99.90
25024;DHT22;13033;50.936;5.334;2023-01-26T13:41:23;4.70;99.90
25024;DHT22;13033;50.936;5.334;2023-01-26T13:43:55;4.70;99.90
25024;DHT22;13033;50.936;5.334;2023-01-26T13:46:41;4.60;99.90
25024;DHT22;13033;50.936;5.334;2023-01-26T13:49:25;4.70;99.90
25024;DHT22;13033;50.936;5.334;2023-01-26T13:51:51;4.80;99.90
25024;DHT22;13033;50.936;5.334;2023-01-26T13:54:17;4.80;99.90
25024;DHT22;13033;50.936;5.334;2023-01-26T13:57:04;4.80;99.90
25024;DHT22;13033;50.936;5.334;2023-01-26T13:59:31;4.80;99.90
25024;DHT22;13033;50.936;5.334;2023-01-26T14:01:58;4.80;99.90
25024;DHT22;13033;50.936;5.334;2023-01-26T14:09:29;5.00;99.90
25024;DHT22;13033;50.936;5.334;2023-01-26T14:12:01;5.10;99.90
25024;DHT22;13033;50.936;5.334;2023-01-26T14:14:37;5.20;99.90
25024;DHT22;13033;50.936;5.334;2023-01-26T14:17:07;5.30;99.90
25024;DHT22;13033;50.936;5.334;2023-01-26T14:19:47;5.50;99.90
25024;DHT22;13033;50.936;5.334;2023-01-26T14:22:12;5.40;99.90
25024;DHT22;13033;50.936;5.334;2023-01-26T14:24:39;5.40;99.90
25024;DHT22;13033;50.936;5.334;2023-01-26T14:27:31;5.40;99.90
25024;DHT22;13033;50.936;5.334;2023-01-26T14:29:58;5.50;99.90
25024;DHT22;13033;50.936;5.334;2023-01-26T14:32:24;5.60;99.90
25024;DHT22;13033;50.936;5.334;2023-01-26T14:34:58;5.60;99.90
25024;DHT22;13033;50.936;5.334;2023-01-26T14:37:25;5.80;99.90
25024;DHT22;13033;50.936;5.334;2023-01-26T14:40:18;5.80;99.90
25024;DHT22;13033;50.936;5.334;2023-01-26T14:42:46;5.90;99.90
25024;DHT22;13033;50.936;5.334;2023-01-26T14:45:13;6.00;99.90
25024;DHT22;13033;50.936;5.334;2023-01-26T14:47:40;6.00;99.90
25024;DHT22;13033;50.936;5.334;2023-01-26T14:50:24;5.90;99.90
25024;DHT22;13033;50.936;5.334;2023-01-26T14:52:52;5.90;99.90
25024;DHT22;13033;50.936;5.334;2023-01-26T14:57:53;5.90;99.90
25024;DHT22;13033;50.936;5.334;2023-01-26T15:00:28;5.80;99.90
25024;DHT22;13033;50.936;5.334;2023-01-26T15:02:56;5.90;99.90
25024;DHT22;13033;50.936;5.334;2023-01-26T15:05:36;6.00;99.90
25024;DHT22;13033;50.936;5.334;2023-01-26T15:08:05;6.10;99.90
25024;DHT22;13033;50.936;5.334;2023-01-26T15:10:52;6.00;99.90
25024;DHT22;13033;50.936;5.334;2023-01-26T15:13:22;5.80;99.90
25024;DHT22;13033;50.936;5.334;2023-01-26T15:16:04;5.80;99.90
25024;DHT22;13033;50.936;5.334;2023-01-26T15:18:30;5.90;99.90
25024;DHT22;13033;50.936;5.334;2023-01-26T15:23:30;6.30;99.90
25024;DHT22;13033;50.936;5.334;2023-01-26T15:26:04;6.10;99.90
25024;DHT22;13033;50.936;5.334;2023-01-26T15:28:30;6.00;99.90
25024;DHT22;13033;50.936;5.334;2023-01-26T15:30:56;5.90;99.90
25024;DHT22;13033;50.936;5.334;2023-01-26T15:33:46;5.80;99.90
25024;DHT22;13033;50.936;5.334;2023-01-26T15:36:28;5.80;99.90
25024;DHT22;13033;50.936;5.334;2023-01-26T15:39:16;5.80;99.90
25024;DHT22;13033;50.936;5.334;2023-01-26T15:41:44;5.90;99.90
25024;DHT22;13033;50.936;5.334;2023-01-26T15:44:18;5.90;99.90
25024;DHT22;13033;50.936;5.334;2023-01-26T15:46:44;5.90;99.90
25024;DHT22;13033;50.936;5.334;2023-01-26T15:49:11;6.00;99.90
25024;DHT22;13033;50.936;5.334;2023-01-26T15:51:37;6.00;99.90
25024;DHT22;13033;50.936;5.334;2023-01-26T15:54:04;5.90;99.90
25024;DHT22;13033;50.936;5.334;2023-01-26T15:56:30;6.00;99.90
25024;DHT22;13033;50.936;5.334;2023-01-26T15:58:56;6.00;99.90
25024;DHT22;13033;50.936;5.334;2023-01-26T16:01:22;6.00;99.90
25024;DHT22;13033;50.936;5.334;2023-01-26T16:03:48;5.90;99.90
25024;DHT22;13033;50.936;5.334;2023-01-26T16:06:29;5.80;99.90
25024;DHT22;13033;50.936;5.334;2023-01-26T16:08:55;5.80;99.90
25024;DHT22;13033;50.936;5.334;2023-01-26T16:11:25;5.70;99.90
25024;DHT22;13033;50.936;5.334;2023-01-26T16:13:53;5.70;99.90
25024;DHT22;13033;50.936;5.334;2023-01-26T16:16:19;5.90;99.90
25024;DHT22;13033;50.936;5.334;2023-01-26T16:18:44;6.00;99.90
25024;DHT22;13033;50.936;5.334;2023-01-26T16:21:22;5.80;99.90
25024;DHT22;13033;50.936;5.334;2023-01-26T16:23:48;5.70;99.90
25024;DHT22;13033;50.936;5.334;2023-01-26T16:26:16;5.60;99.90
25024;DHT22;13033;50.936;5.334;2023-01-26T16:28:43;5.60;99.90
25024;DHT22;13033;50.936;5.334;2023-01-26T16:33:41;5.90;99.90
25024;DHT22;13033;50.936;5.334;2023-01-26T16:36:11;5.90;99.90
25024;DHT22;13033;50.936;5.334;2023-01-26T16:38:37;6.00;99.90
25024;DHT22;13033;50.936;5.334;2023-01-26T16:41:03;5.90;99.90
25024;DHT22;13033;50.936;5.334;2023-01-26T16:43:29;5.90;99.90
25024;DHT22;13033;50.936;5.334;2023-01-26T16:45:56;6.00;99.90
25024;DHT22;13033;50.936;5.334;2023-01-26T16:48:22;6.30;99.90
25024;DHT22;13033;50.936;5.334;2023-01-26T16:50:52;6.30;99.90
25024;DHT22;13033;50.936;5.334;2023-01-26T16:53:36;6.30;99.90
25024;DHT22;13033;50.936;5.334;2023-01-26T16:56:02;6.00;99.90
25024;DHT22;13033;50.936;5.334;2023-01-26T16:58:28;6.00;99.90
25024;DHT22;13033;50.936;5.334;2023-01-26T17:00:55;6.10;99.90
25024;DHT22;13033;50.936;5.334;2023-01-26T17:03:21;6.00;99.90
25024;DHT22;13033;50.936;5.334;2023-01-26T17:05:46;5.90;99.90
25024;DHT22;13033;50.936;5.334;2023-01-26T17:08:14;6.10;99.90
25024;DHT22;13033;50.936;5.334;2023-01-26T17:10:40;5.90;99.90
25024;DHT22;13033;50.936;5.334;2023-01-26T17:13:06;5.80;99.90
25024;DHT22;13033;50.936;5.334;2023-01-26T17:15:31;5.80;99.90
25024;DHT22;13033;50.936;5.334;2023-01-26T17:17:57;5.80;99.90
25024;DHT22;13033;50.936;5.334;2023-01-26T17:20:23;5.60;99.90
25024;DHT22;13033;50.936;5.334;2023-01-26T17:22:49;5.90;99.90
25024;DHT22;13033;50.936;5.334;2023-01-26T17:25:16;5.90;99.90